createdAt,value
2016-10-29T00:00:03.643Z,1046.73
2016-10-29T00:01:04.134Z,1046.71
2016-10-29T00:02:03.724Z,1046.73
2016-10-29T00:03:03.612Z,1046.76
2016-10-29T00:04:03.602Z,1046.76
2016-10-29T00:05:03.592Z,1046.75
2016-10-29T00:06:03.582Z,1046.8
2016-10-29T00:07:03.574Z,1046.77
2016-10-29T00:08:03.565Z,1046.75
2016-10-29T00:09:03.555Z,1046.72
2016-10-29T00:10:03.545Z,1046.71
2016-10-29T00:11:03.532Z,1046.74
2016-10-29T00:12:03.526Z,1046.75
2016-10-29T00:13:03.515Z,1046.76
2016-10-29T00:14:03.504Z,1046.77
2016-10-29T00:15:03.495Z,1046.78
2016-10-29T00:16:03.483Z,1046.83
2016-10-29T00:17:03.476Z,1046.87
2016-10-29T00:18:03.465Z,1046.87
2016-10-29T00:19:03.455Z,1046.84
2016-10-29T00:20:03.444Z,1046.87
2016-10-29T00:22:03.508Z,1046.88
2016-10-29T00:23:03.878Z,1046.9
2016-10-29T00:24:03.403Z,1046.9
2016-10-29T00:25:03.396Z,1046.95
2016-10-29T00:26:03.385Z,1046.93
2016-10-29T00:27:03.425Z,1046.93
2016-10-29T00:28:03.364Z,1046.93
2016-10-29T00:29:03.352Z,1046.95
2016-10-29T00:30:03.343Z,1046.95
2016-10-29T00:31:03.335Z,1046.88
2016-10-29T00:32:03.325Z,1046.91
2016-10-29T00:33:03.312Z,1046.94
2016-10-29T00:34:03.304Z,1046.92
2016-10-29T00:35:03.295Z,1046.97
2016-10-29T00:36:03.283Z,1046.99
2016-10-29T00:37:03.271Z,1046.99
2016-10-29T00:38:03.264Z,1046.97
2016-10-29T00:39:03.255Z,1047.04
2016-10-29T00:40:03.241Z,1047.06
2016-10-29T00:41:03.230Z,1047.01
2016-10-29T00:42:03.222Z,1047.02
2016-10-29T00:43:03.213Z,1047.03
2016-10-29T00:44:03.200Z,1047.03
2016-10-29T00:45:03.190Z,1047.01
2016-10-29T00:46:03.181Z,1047.06
2016-10-29T00:47:03.173Z,1047.12
2016-10-29T00:48:03.159Z,1047.14
2016-10-29T00:49:03.149Z,1047.13
2016-10-29T00:50:03.141Z,1047.13
2016-10-29T00:51:03.131Z,1047.17
2016-10-29T00:52:03.118Z,1047.14
2016-10-29T00:53:03.108Z,1047.13
2016-10-29T00:54:03.098Z,1047.15
2016-10-29T00:55:03.089Z,1047.16
2016-10-29T00:56:03.077Z,1047.14
2016-10-29T00:57:03.067Z,1047.17
2016-10-29T00:58:03.057Z,1047.24
2016-10-29T00:59:03.046Z,1047.19
2016-10-29T01:00:03.036Z,1047.23
2016-10-29T01:01:03.026Z,1047.23
2016-10-29T01:02:03.017Z,1047.23
2016-10-29T01:03:03.005Z,1047.22
2016-10-29T01:04:02.997Z,1047.28
2016-10-29T01:05:02.987Z,1047.29
2016-10-29T01:06:02.974Z,1047.3
2016-10-29T01:07:02.963Z,1047.32
2016-10-29T01:08:02.956Z,1047.34
2016-10-29T01:09:02.946Z,1047.33
2016-10-29T01:10:03.586Z,1047.29
2016-10-29T01:11:02.923Z,1047.28
2016-10-29T01:12:02.915Z,1047.3
2016-10-29T01:13:02.902Z,1047.27
2016-10-29T01:14:02.894Z,1047.32
2016-10-29T01:15:02.882Z,1047.32
2016-10-29T01:16:02.874Z,1047.39
2016-10-29T01:17:02.863Z,1047.38
2016-10-29T01:18:02.853Z,1047.39
2016-10-29T01:19:02.840Z,1047.34
2016-10-29T01:20:02.831Z,1047.3
2016-10-29T01:21:02.821Z,1047.31
2016-10-29T01:22:02.811Z,1047.25
2016-10-29T01:23:02.800Z,1047.29
2016-10-29T01:24:02.789Z,1047.27
2016-10-29T01:25:02.777Z,1047.26
2016-10-29T01:26:02.769Z,1047.27
2016-10-29T01:27:02.759Z,1047.27
2016-10-29T01:28:02.748Z,1047.29
2016-10-29T01:29:02.737Z,1047.3
2016-10-29T01:30:02.727Z,1047.26
2016-10-29T01:31:04.006Z,1047.26
2016-10-29T01:32:02.706Z,1047.28
2016-10-29T01:33:02.697Z,1047.29
2016-10-29T01:34:02.685Z,1047.28
2016-10-29T01:35:02.672Z,1047.29
2016-10-29T01:36:02.664Z,1047.29
2016-10-29T01:37:02.651Z,1047.3
2016-10-29T01:38:02.641Z,1047.33
2016-10-29T01:39:02.632Z,1047.25
2016-10-29T01:40:02.621Z,1047.21
2016-10-29T01:41:02.937Z,1047.19
2016-10-29T01:42:02.600Z,1047.2
2016-10-29T01:43:02.588Z,1047.22
2016-10-29T01:44:02.592Z,1047.25
2016-10-29T01:45:02.568Z,1047.22
2016-10-29T01:46:02.556Z,1047.22
2016-10-29T01:47:02.546Z,1047.25
2016-10-29T01:48:02.537Z,1047.23
2016-10-29T01:49:02.526Z,1047.24
2016-10-29T01:50:02.513Z,1047.2
2016-10-29T01:51:02.503Z,1047.29
2016-10-29T01:52:02.492Z,1047.27
2016-10-29T01:53:02.481Z,1047.25
2016-10-29T01:54:02.473Z,1047.23
2016-10-29T01:55:02.459Z,1047.21
2016-10-29T01:56:02.452Z,1047.16
2016-10-29T01:57:02.441Z,1047.21
2016-10-29T01:58:02.431Z,1047.22
2016-10-29T01:59:02.418Z,1047.16
2016-10-29T02:00:02.408Z,1047.23
2016-10-29T02:01:02.397Z,1047.21
2016-10-29T02:02:02.386Z,1047.25
2016-10-29T02:03:02.377Z,1047.28
2016-10-29T02:04:02.364Z,1047.29
2016-10-29T02:05:02.353Z,1047.24
2016-10-29T02:06:02.343Z,1047.27
2016-10-29T02:07:02.333Z,1047.33
2016-10-29T02:08:02.323Z,1047.38
2016-10-29T02:09:02.313Z,1047.39
2016-10-29T02:10:02.302Z,1047.37
2016-10-29T02:11:02.292Z,1047.36
2016-10-29T02:12:02.279Z,1047.38
2016-10-29T02:13:02.268Z,1047.34
2016-10-29T02:14:02.258Z,1047.27
2016-10-29T02:15:02.248Z,1047.33
2016-10-29T02:16:02.236Z,1047.33
2016-10-29T02:17:02.227Z,1047.33
2016-10-29T02:18:02.215Z,1047.4
2016-10-29T02:19:02.203Z,1047.43
2016-10-29T02:20:02.193Z,1047.46
2016-10-29T02:21:02.182Z,1047.53
2016-10-29T02:22:02.173Z,1047.51
2016-10-29T02:23:03.363Z,1047.49
2016-10-29T02:24:02.152Z,1047.48
2016-10-29T02:25:02.139Z,1047.53
2016-10-29T02:26:02.132Z,1047.48
2016-10-29T02:27:02.141Z,1047.47
2016-10-29T02:28:02.109Z,1047.5
2016-10-29T02:29:02.095Z,1047.45
2016-10-29T02:30:02.087Z,1047.48
2016-10-29T02:31:02.074Z,1047.45
2016-10-29T02:32:02.066Z,1047.45
2016-10-29T02:33:02.053Z,1047.46
2016-10-29T02:34:02.043Z,1047.45
2016-10-29T02:35:02.033Z,1047.46
2016-10-29T02:36:02.721Z,1047.49
2016-10-29T02:37:02.309Z,1047.45
2016-10-29T02:38:02.001Z,1047.46
2016-10-29T02:39:01.988Z,1047.49
2016-10-29T02:40:01.977Z,1047.47
2016-10-29T02:41:01.968Z,1047.45
2016-10-29T02:42:01.954Z,1047.48
2016-10-29T02:43:01.947Z,1047.46
2016-10-29T02:44:01.936Z,1047.44
2016-10-29T02:45:01.924Z,1047.45
2016-10-29T02:46:01.917Z,1047.39
2016-10-29T02:47:01.903Z,1047.39
2016-10-29T02:48:02.674Z,1047.42
2016-10-29T02:49:02.237Z,1047.44
2016-10-29T02:50:01.870Z,1047.42
2016-10-29T02:51:02.001Z,1047.42
2016-10-29T02:52:02.221Z,1047.45
2016-10-29T02:53:01.837Z,1047.39
2016-10-29T02:54:01.827Z,1047.36
2016-10-29T02:55:01.817Z,1047.32
2016-10-29T02:56:01.805Z,1047.36
2016-10-29T02:57:01.796Z,1047.3
2016-10-29T02:58:01.785Z,1047.25
2016-10-29T02:59:01.951Z,1047.22
2016-10-29T03:00:01.761Z,1047.18
2016-10-29T03:01:01.752Z,1047.15
2016-10-29T03:02:01.740Z,1047.17
2016-10-29T03:03:01.731Z,1047.13
2016-10-29T03:04:01.721Z,1047.13
2016-10-29T03:05:01.710Z,1047.09
2016-10-29T03:06:01.698Z,1047.07
2016-10-29T03:07:01.686Z,1047.12
2016-10-29T03:08:01.675Z,1047.15
2016-10-29T03:09:01.666Z,1047.1
2016-10-29T03:10:01.653Z,1047.11
2016-10-29T03:11:01.644Z,1047.09
2016-10-29T03:12:01.634Z,1047.02
2016-10-29T03:13:01.621Z,1047
2016-10-29T03:14:01.611Z,1047
2016-10-29T03:15:01.600Z,1047.02
2016-10-29T03:16:01.589Z,1047.07
2016-10-29T03:17:01.578Z,1047.1
2016-10-29T03:18:01.567Z,1047.12
2016-10-29T03:19:01.556Z,1047.1
2016-10-29T03:20:01.548Z,1047.11
2016-10-29T03:21:01.536Z,1047.11
2016-10-29T03:22:01.526Z,1047
2016-10-29T03:23:01.513Z,1046.97
2016-10-29T03:24:01.503Z,1046.93
2016-10-29T03:25:01.492Z,1046.92
2016-10-29T03:26:01.483Z,1046.89
2016-10-29T03:27:01.471Z,1046.84
2016-10-29T03:28:01.459Z,1046.81
2016-10-29T03:29:01.449Z,1046.75
2016-10-29T03:30:01.440Z,1046.6
2016-10-29T03:31:01.428Z,1046.57
2016-10-29T03:32:01.419Z,1046.49
2016-10-29T03:33:01.409Z,1046.44
2016-10-29T03:34:01.399Z,1046.43
2016-10-29T03:35:01.386Z,1046.43
2016-10-29T03:36:01.376Z,1046.45
2016-10-29T03:37:01.367Z,1046.45
2016-10-29T03:38:01.354Z,1046.43
2016-10-29T03:39:01.344Z,1046.51
2016-10-29T03:40:01.336Z,1046.51
2016-10-29T03:41:01.325Z,1046.52
2016-10-29T03:42:01.364Z,1046.54
2016-10-29T03:43:02.606Z,1046.54
2016-10-29T03:44:01.295Z,1046.59
2016-10-29T03:45:01.733Z,1046.64
2016-10-29T03:46:01.674Z,1046.64
2016-10-29T03:47:01.263Z,1046.59
2016-10-29T03:48:01.252Z,1046.55
2016-10-29T03:49:01.241Z,1046.63
2016-10-29T03:50:01.232Z,1046.6
2016-10-29T03:51:02.173Z,1046.69
2016-10-29T03:52:01.212Z,1046.75
2016-10-29T03:53:01.202Z,1046.74
2016-10-29T03:54:01.189Z,1046.76
2016-10-29T03:55:01.177Z,1046.77
2016-10-29T03:56:01.170Z,1046.79
2016-10-29T03:57:01.160Z,1046.77
2016-10-29T03:58:01.149Z,1046.77
2016-10-29T03:59:01.137Z,1046.79
2016-10-29T04:00:01.129Z,1046.87
2016-10-29T04:01:01.116Z,1046.87
2016-10-29T04:02:01.107Z,1046.9
2016-10-29T04:03:01.097Z,1046.89
2016-10-29T04:04:01.087Z,1046.87
2016-10-29T04:05:01.074Z,1046.85
2016-10-29T04:06:01.065Z,1046.87
2016-10-29T04:07:01.053Z,1046.96
2016-10-29T04:08:02.548Z,1046.94
2016-10-29T04:09:01.503Z,1046.96
2016-10-29T04:10:01.023Z,1046.92
2016-10-29T04:11:01.013Z,1046.88
2016-10-29T04:12:01.002Z,1046.88
2016-10-29T04:13:00.991Z,1046.91
2016-10-29T04:14:00.981Z,1046.93
2016-10-29T04:15:01.674Z,1046.94
2016-10-29T04:17:00.947Z,1046.95
2016-10-29T04:18:00.937Z,1046.89
2016-10-29T04:19:01.638Z,1046.91
2016-10-29T04:20:00.915Z,1046.92
2016-10-29T04:21:00.907Z,1046.97
2016-10-29T04:22:00.897Z,1046.98
2016-10-29T04:23:00.885Z,1046.96
2016-10-29T04:24:00.873Z,1046.97
2016-10-29T04:25:00.862Z,1046.94
2016-10-29T04:26:00.852Z,1046.93
2016-10-29T04:27:00.840Z,1047
2016-10-29T04:28:00.831Z,1046.98
2016-10-29T04:29:00.819Z,1046.99
2016-10-29T04:30:00.809Z,1047.02
2016-10-29T04:31:00.797Z,1047.04
2016-10-29T04:32:00.786Z,1047.09
2016-10-29T04:33:00.779Z,1047.08
2016-10-29T04:34:00.765Z,1047.08
2016-10-29T04:35:00.753Z,1047.08
2016-10-29T04:36:00.744Z,1047.13
2016-10-29T04:37:00.731Z,1047.09
2016-10-29T04:38:00.722Z,1047.05
2016-10-29T04:39:00.709Z,1047.04
2016-10-29T04:40:00.698Z,1047
2016-10-29T04:41:00.686Z,1046.99
2016-10-29T04:42:00.675Z,1047.02
2016-10-29T04:43:00.664Z,1047.04
2016-10-29T04:44:00.655Z,1047.02
2016-10-29T04:45:00.642Z,1047.02
2016-10-29T04:46:00.633Z,1047.03
2016-10-29T04:47:00.623Z,1047.07
2016-10-29T04:48:00.611Z,1047.07
2016-10-29T04:49:00.598Z,1047.08
2016-10-29T04:50:00.587Z,1047.1
2016-10-29T04:51:00.578Z,1047.1
2016-10-29T04:52:00.565Z,1047.1
2016-10-29T04:53:00.556Z,1047.12
2016-10-29T04:54:00.545Z,1047.12
2016-10-29T04:55:00.534Z,1047.16
2016-10-29T04:56:00.522Z,1047.12
2016-10-29T04:57:00.510Z,1047.08
2016-10-29T04:58:00.500Z,1047.1
2016-10-29T04:59:00.490Z,1047.09
2016-10-29T05:00:00.477Z,1047.08
2016-10-29T05:01:00.567Z,1047.07
2016-10-29T05:02:00.457Z,1047.12
2016-10-29T05:03:00.445Z,1047.13
2016-10-29T05:04:00.432Z,1047.12
2016-10-29T05:05:00.423Z,1047.14
2016-10-29T05:06:00.411Z,1047.11
2016-10-29T05:07:00.649Z,1047.06
2016-10-29T05:08:00.390Z,1047.08
2016-10-29T05:09:00.379Z,1047.08
2016-10-29T05:10:00.969Z,1047.06
2016-10-29T05:11:00.357Z,1047.05
2016-10-29T05:12:00.348Z,1047.03
2016-10-29T05:13:00.335Z,1047.02
2016-10-29T05:14:00.324Z,1047
2016-10-29T05:15:00.316Z,1046.9
2016-10-29T05:16:00.302Z,1046.86
2016-10-29T05:17:00.289Z,1046.77
2016-10-29T05:18:00.280Z,1046.76
2016-10-29T05:19:00.269Z,1046.7
2016-10-29T05:20:00.258Z,1046.65
2016-10-29T05:21:00.247Z,1046.64
2016-10-29T05:22:00.235Z,1046.65
2016-10-29T05:23:00.225Z,1046.66
2016-10-29T05:24:01.746Z,1046.68
2016-10-29T05:25:00.202Z,1046.73
2016-10-29T05:26:01.051Z,1046.75
2016-10-29T05:27:01.015Z,1046.76
2016-10-29T05:28:00.172Z,1046.83
2016-10-29T05:29:00.160Z,1046.88
2016-10-29T05:30:00.148Z,1046.89
2016-10-29T05:31:00.141Z,1046.93
2016-10-29T05:32:00.127Z,1046.96
2016-10-29T05:33:00.130Z,1046.96
2016-10-29T05:34:00.463Z,1046.99
2016-10-29T05:35:00.097Z,1047
2016-10-29T05:36:00.084Z,1046.98
2016-10-29T05:37:00.073Z,1047.01
2016-10-29T05:38:00.062Z,1046.99
2016-10-29T05:39:00.053Z,1047.01
2016-10-29T05:40:00.282Z,1047.01
2016-10-29T05:41:00.148Z,1047.04
2016-10-29T05:42:00.019Z,1047.09
2016-10-29T05:43:00.011Z,1047.09
2016-10-29T05:43:59.997Z,1047.13
2016-10-29T05:44:59.988Z,1047.13
2016-10-29T05:45:59.978Z,1047.14
2016-10-29T05:46:59.963Z,1047.09
2016-10-29T05:47:59.954Z,1047.13
2016-10-29T05:48:59.943Z,1047.11
2016-10-29T05:49:59.933Z,1047.13
2016-10-29T05:50:59.923Z,1047.14
2016-10-29T05:51:59.913Z,1047.14
2016-10-29T05:52:59.902Z,1047.08
2016-10-29T05:53:59.890Z,1047.12
2016-10-29T05:54:59.879Z,1047.18
2016-10-29T05:55:59.871Z,1047.21
2016-10-29T05:56:59.860Z,1047.19
2016-10-29T05:57:59.846Z,1047.18
2016-10-29T05:58:59.836Z,1047.15
2016-10-29T05:59:59.826Z,1047.09
2016-10-29T06:00:59.815Z,1047.04
2016-10-29T06:01:59.805Z,1047.07
2016-10-29T06:02:59.794Z,1047.02
2016-10-29T06:03:59.785Z,1047.08
2016-10-29T06:04:59.771Z,1047.13
2016-10-29T06:05:59.760Z,1047.14
2016-10-29T06:06:59.751Z,1047.15
2016-10-29T06:07:59.739Z,1047.16
2016-10-29T06:08:59.728Z,1047.09
2016-10-29T06:09:59.717Z,1047.07
2016-10-29T06:10:59.707Z,1047.01
2016-10-29T06:11:59.696Z,1046.97
2016-10-29T06:12:59.685Z,1046.94
2016-10-29T06:13:59.673Z,1046.93
2016-10-29T06:14:59.665Z,1046.94
2016-10-29T06:15:59.653Z,1046.89
2016-10-29T06:16:59.644Z,1046.89
2016-10-29T06:17:59.634Z,1046.89
2016-10-29T06:18:59.622Z,1046.87
2016-10-29T06:19:59.610Z,1046.83
2016-10-29T06:20:59.602Z,1046.78
2016-10-29T06:21:59.592Z,1046.7
2016-10-29T06:22:59.580Z,1046.68
2016-10-29T06:23:59.568Z,1046.63
2016-10-29T06:24:59.558Z,1046.62
2016-10-29T06:25:59.550Z,1046.62
2016-10-29T06:26:59.538Z,1046.61
2016-10-29T06:27:59.529Z,1046.59
2016-10-29T06:28:59.518Z,1046.55
2016-10-29T06:29:59.506Z,1046.53
2016-10-29T06:31:00.048Z,1046.41
2016-10-29T06:31:59.487Z,1046.34
2016-10-29T06:32:59.977Z,1046.24
2016-10-29T06:33:59.467Z,1046.18
2016-10-29T06:34:59.454Z,1046.03
2016-10-29T06:35:59.446Z,1045.91
2016-10-29T06:36:59.434Z,1045.84
2016-10-29T06:37:59.422Z,1045.71
2016-10-29T06:38:59.415Z,1045.58
2016-10-29T06:39:59.404Z,1045.45
2016-10-29T06:40:59.394Z,1045.38
2016-10-29T06:41:59.383Z,1045.35
2016-10-29T06:43:00.673Z,1045.34
2016-10-29T06:43:59.621Z,1045.33
2016-10-29T06:45:00.573Z,1045.3
2016-10-29T06:45:59.346Z,1045.29
2016-10-29T06:46:59.335Z,1045.24
2016-10-29T06:47:59.390Z,1045.23
2016-10-29T06:48:59.318Z,1045.19
2016-10-29T06:49:59.307Z,1045.18
2016-10-29T06:50:59.298Z,1045.09
2016-10-29T06:51:59.289Z,1045.03
2016-10-29T06:52:59.281Z,1044.94
2016-10-29T06:53:59.270Z,1044.73
2016-10-29T06:54:59.261Z,1044.66
2016-10-29T06:55:59.255Z,1044.51
2016-10-29T06:56:59.304Z,1044.46
2016-10-29T06:57:59.237Z,1044.46
2016-10-29T06:58:59.226Z,1044.53
2016-10-29T06:59:59.217Z,1044.59
2016-10-29T07:00:59.212Z,1044.66
2016-10-29T07:01:59.202Z,1044.73
2016-10-29T07:02:59.192Z,1044.82
2016-10-29T07:03:59.185Z,1044.81
2016-10-29T07:04:59.176Z,1044.91
2016-10-29T07:05:59.166Z,1044.91
2016-10-29T07:06:59.160Z,1044.88
2016-10-29T07:07:59.149Z,1044.85
2016-10-29T07:08:59.153Z,1044.84
2016-10-29T07:09:59.132Z,1044.79
2016-10-29T07:10:59.125Z,1044.73
2016-10-29T07:11:59.116Z,1044.73
2016-10-29T07:12:59.109Z,1044.65
2016-10-29T07:13:59.099Z,1044.64
2016-10-29T07:14:59.091Z,1044.56
2016-10-29T07:15:59.085Z,1044.54
2016-10-29T07:16:59.074Z,1044.48
2016-10-29T07:17:59.069Z,1044.42
2016-10-29T07:18:59.058Z,1044.37
2016-10-29T07:19:59.052Z,1044.38
2016-10-29T07:20:59.044Z,1044.37
2016-10-29T07:21:59.035Z,1044.34
2016-10-29T07:22:59.028Z,1044.36
2016-10-29T07:23:59.018Z,1044.36
2016-10-29T07:24:59.010Z,1044.37
2016-10-29T07:25:59.004Z,1044.37
2016-10-29T07:26:58.994Z,1044.36
2016-10-29T07:27:58.988Z,1044.42
2016-10-29T07:28:58.981Z,1044.45
2016-10-29T07:29:58.974Z,1044.43
2016-10-29T07:30:58.964Z,1044.37
2016-10-29T07:31:58.957Z,1044.39
2016-10-29T07:32:58.950Z,1044.3
2016-10-29T07:33:58.943Z,1044.22
2016-10-29T07:34:58.936Z,1044.2
2016-10-29T07:35:58.927Z,1044.17
2016-10-29T07:36:58.920Z,1044.16
2016-10-29T07:37:58.911Z,1044.05
2016-10-29T07:38:58.904Z,1044.11
2016-10-29T07:39:59.297Z,1044.05
2016-10-29T07:40:58.890Z,1044.01
2016-10-29T07:41:58.883Z,1043.87
2016-10-29T07:42:58.876Z,1043.85
2016-10-29T07:43:58.868Z,1043.82
2016-10-29T07:44:58.859Z,1043.85
2016-10-29T07:45:58.854Z,1043.8
2016-10-29T07:46:58.845Z,1043.85
2016-10-29T07:47:58.839Z,1043.83
2016-10-29T07:48:58.831Z,1043.79
2016-10-29T07:49:58.829Z,1043.86
2016-10-29T07:50:58.817Z,1043.79
2016-10-29T07:51:58.809Z,1043.75
2016-10-29T07:52:58.801Z,1043.77
2016-10-29T07:53:58.795Z,1043.72
2016-10-29T07:54:58.787Z,1043.64
2016-10-29T07:55:58.783Z,1043.65
2016-10-29T07:56:58.774Z,1043.55
2016-10-29T07:57:58.769Z,1043.59
2016-10-29T07:58:58.760Z,1043.58
2016-10-29T07:59:58.758Z,1043.6
2016-10-29T08:00:58.751Z,1043.57
2016-10-29T08:01:58.739Z,1043.48
2016-10-29T08:03:00.066Z,1043.53
2016-10-29T08:03:58.729Z,1043.53
2016-10-29T08:04:58.990Z,1043.5
2016-10-29T08:05:58.715Z,1043.5
2016-10-29T08:06:58.707Z,1043.51
2016-10-29T08:07:58.703Z,1043.49
2016-10-29T08:08:58.694Z,1043.45
2016-10-29T08:09:58.689Z,1043.4
2016-10-29T08:10:58.681Z,1043.35
2016-10-29T08:11:58.688Z,1043.28
2016-10-29T08:12:58.668Z,1043.28
2016-10-29T08:13:58.767Z,1043.16
2016-10-29T08:14:58.658Z,1043.09
2016-10-29T08:15:58.650Z,1043.1
2016-10-29T08:16:58.643Z,1042.97
2016-10-29T08:17:58.639Z,1042.92
2016-10-29T08:18:58.631Z,1042.83
2016-10-29T08:19:58.625Z,1042.83
2016-10-29T08:20:58.618Z,1042.82
2016-10-29T08:21:58.614Z,1042.85
2016-10-29T08:22:58.608Z,1042.82
2016-10-29T08:23:58.600Z,1042.76
2016-10-29T08:24:58.594Z,1042.74
2016-10-29T08:25:58.588Z,1042.79
2016-10-29T08:26:58.583Z,1042.74
2016-10-29T08:27:58.576Z,1042.74
2016-10-29T08:28:58.570Z,1042.68
2016-10-29T08:29:58.567Z,1042.67
2016-10-29T08:30:58.559Z,1042.62
2016-10-29T08:31:58.553Z,1042.53
2016-10-29T08:32:58.547Z,1042.49
2016-10-29T08:33:58.542Z,1042.49
2016-10-29T08:34:58.536Z,1042.51
2016-10-29T08:35:58.530Z,1042.5
2016-10-29T08:36:58.524Z,1042.54
2016-10-29T08:37:58.521Z,1042.43
2016-10-29T08:38:58.515Z,1042.44
2016-10-29T08:39:58.510Z,1042.37
2016-10-29T08:40:58.502Z,1042.35
2016-10-29T08:41:58.497Z,1042.35
2016-10-29T08:42:58.492Z,1042.37
2016-10-29T08:43:58.487Z,1042.33
2016-10-29T08:44:58.480Z,1042.34
2016-10-29T08:45:58.476Z,1042.27
2016-10-29T08:46:58.469Z,1042.21
2016-10-29T08:47:58.464Z,1042.16
2016-10-29T08:48:58.461Z,1042.15
2016-10-29T08:49:58.454Z,1042.11
2016-10-29T08:50:58.450Z,1042.12
2016-10-29T08:51:58.445Z,1042.11
2016-10-29T08:52:58.438Z,1042.17
2016-10-29T08:53:58.432Z,1042.25
2016-10-29T08:54:58.427Z,1042.23
2016-10-29T08:55:58.424Z,1042.27
2016-10-29T08:56:58.418Z,1042.27
2016-10-29T08:57:58.411Z,1042.23
2016-10-29T08:58:58.407Z,1042.29
2016-10-29T08:59:58.403Z,1042.3
2016-10-29T09:00:58.398Z,1042.32
2016-10-29T09:01:58.393Z,1042.34
2016-10-29T09:02:58.386Z,1042.3
2016-10-29T09:03:58.383Z,1042.36
2016-10-29T09:04:58.376Z,1042.4
2016-10-29T09:05:59.171Z,1042.42
2016-10-29T09:06:58.366Z,1042.26
2016-10-29T09:07:59.014Z,1042.18
2016-10-29T09:08:58.355Z,1042.11
2016-10-29T09:09:58.350Z,1042.03
2016-10-29T09:10:58.347Z,1041.97
2016-10-29T09:11:58.339Z,1041.9
2016-10-29T09:12:58.334Z,1041.82
2016-10-29T09:13:58.329Z,1041.84
2016-10-29T09:14:58.325Z,1041.88
2016-10-29T09:15:58.320Z,1041.96
2016-10-29T09:16:58.318Z,1041.91
2016-10-29T09:17:58.312Z,1041.96
2016-10-29T09:18:58.303Z,1041.88
2016-10-29T09:19:58.298Z,1041.84
2016-10-29T09:20:59.416Z,1041.8
2016-10-29T09:21:58.894Z,1041.74
2016-10-29T09:22:58.283Z,1041.69
2016-10-29T09:23:58.562Z,1041.67
2016-10-29T09:24:58.666Z,1041.57
2016-10-29T09:25:58.269Z,1041.57
2016-10-29T09:26:58.264Z,1041.58
2016-10-29T09:27:58.488Z,1041.48
2016-10-29T09:29:00.151Z,1041.46
2016-10-29T09:29:58.249Z,1041.43
2016-10-29T09:30:58.290Z,1041.39
2016-10-29T09:31:58.241Z,1041.39
2016-10-29T09:32:58.939Z,1041.34
2016-10-29T09:33:58.233Z,1041.35
2016-10-29T09:34:58.226Z,1041.29
2016-10-29T09:35:58.224Z,1041.33
2016-10-29T09:36:58.219Z,1041.34
2016-10-29T09:37:58.212Z,1041.33
2016-10-29T09:38:58.208Z,1041.29
2016-10-29T09:39:58.204Z,1041.21
2016-10-29T09:40:58.199Z,1041.16
2016-10-29T09:41:58.194Z,1041.12
2016-10-29T09:42:58.192Z,1041.18
2016-10-29T09:43:58.188Z,1041.1
2016-10-29T09:44:58.181Z,1041.13
2016-10-29T09:45:58.179Z,1041.09
2016-10-29T09:46:58.172Z,1041.25
2016-10-29T09:47:58.169Z,1041.25
2016-10-29T09:48:58.164Z,1041.25
2016-10-29T09:49:58.163Z,1041.27
2016-10-29T09:50:58.156Z,1041.19
2016-10-29T09:51:58.150Z,1041.09
2016-10-29T09:52:58.145Z,1041.07
2016-10-29T09:53:58.141Z,1041.01
2016-10-29T09:54:58.139Z,1041.02
2016-10-29T09:55:58.134Z,1041.07
2016-10-29T09:56:58.130Z,1041.02
2016-10-29T09:57:58.124Z,1041.06
2016-10-29T09:58:58.121Z,1041.04
2016-10-29T09:59:58.115Z,1041.07
2016-10-29T10:00:58.113Z,1041.06
2016-10-29T10:01:58.107Z,1041.02
2016-10-29T10:02:58.102Z,1041.03
2016-10-29T10:03:58.098Z,1041.08
2016-10-29T10:04:58.094Z,1041.09
2016-10-29T10:05:58.092Z,1041.11
2016-10-29T10:06:58.085Z,1041.11
2016-10-29T10:07:58.083Z,1041.11
2016-10-29T10:08:58.077Z,1041.13
2016-10-29T10:09:58.072Z,1041.17
2016-10-29T10:10:58.069Z,1041.07
2016-10-29T10:11:58.064Z,1041.06
2016-10-29T10:13:58.058Z,1041.07
2016-10-29T10:14:58.053Z,1041.07
2016-10-29T10:15:58.049Z,1041.07
2016-10-29T10:16:58.595Z,1041.09
2016-10-29T10:17:58.041Z,1041.05
2016-10-29T10:18:58.035Z,1041.07
2016-10-29T10:19:58.031Z,1040.98
2016-10-29T10:20:58.028Z,1040.98
2016-10-29T10:21:58.022Z,1040.9
2016-10-29T10:22:58.018Z,1040.9
2016-10-29T10:23:58.015Z,1040.95
2016-10-29T10:24:58.012Z,1040.96
2016-10-29T10:25:58.008Z,1040.98
2016-10-29T10:26:58.002Z,1041.02
2016-10-29T10:27:58.001Z,1040.94
2016-10-29T10:28:57.995Z,1040.92
2016-10-29T10:29:57.992Z,1041
2016-10-29T10:30:57.990Z,1041.02
2016-10-29T10:31:57.981Z,1041.04
2016-10-29T10:32:57.977Z,1041.16
2016-10-29T10:33:57.975Z,1041.13
2016-10-29T10:34:57.971Z,1041.14
2016-10-29T10:35:57.968Z,1041.17
2016-10-29T10:36:57.961Z,1041.16
2016-10-29T10:37:57.959Z,1041.29
2016-10-29T10:38:59.316Z,1041.34
2016-10-29T10:39:57.951Z,1041.42
2016-10-29T10:40:57.945Z,1041.42
2016-10-29T10:41:57.943Z,1041.48
2016-10-29T10:42:57.938Z,1041.36
2016-10-29T10:43:57.932Z,1041.23
2016-10-29T10:44:57.930Z,1041.09
2016-10-29T10:45:57.924Z,1041.08
2016-10-29T10:46:58.981Z,1040.9
2016-10-29T10:47:58.000Z,1040.94
2016-10-29T10:48:59.045Z,1040.95
2016-10-29T10:49:57.906Z,1040.94
2016-10-29T10:50:57.906Z,1040.96
2016-10-29T10:51:57.899Z,1041.14
2016-10-29T10:52:57.897Z,1041.2
2016-10-29T10:53:57.890Z,1041.27
2016-10-29T10:54:57.886Z,1041.43
2016-10-29T10:55:57.881Z,1041.38
2016-10-29T10:56:57.878Z,1041.36
2016-10-29T10:57:57.873Z,1041.36
2016-10-29T10:58:57.871Z,1041.35
2016-10-29T10:59:57.867Z,1041.35
2016-10-29T11:00:57.862Z,1041.3
2016-10-29T11:01:57.862Z,1041.29
2016-10-29T11:02:57.854Z,1041.32
2016-10-29T11:03:57.848Z,1041.35
2016-10-29T11:04:57.843Z,1041.23
2016-10-29T11:05:57.838Z,1041.18
2016-10-29T11:06:57.835Z,1041.27
2016-10-29T11:07:57.830Z,1041.27
2016-10-29T11:08:57.826Z,1041.22
2016-10-29T11:09:57.821Z,1041.24
2016-10-29T11:10:57.819Z,1041.14
2016-10-29T11:11:57.811Z,1041.03
2016-10-29T11:12:57.809Z,1040.96
2016-10-29T11:13:57.805Z,1041
2016-10-29T11:14:57.800Z,1040.99
2016-10-29T11:15:57.794Z,1041.05
2016-10-29T11:16:57.791Z,1040.94
2016-10-29T11:17:57.788Z,1040.76
2016-10-29T11:18:57.785Z,1040.76
2016-10-29T11:19:57.776Z,1040.77
2016-10-29T11:20:57.772Z,1040.89
2016-10-29T11:21:57.770Z,1040.98
2016-10-29T11:22:57.765Z,1040.93
2016-10-29T11:23:57.761Z,1041.01
2016-10-29T11:24:57.756Z,1040.9
2016-10-29T11:25:57.751Z,1040.95
2016-10-29T11:26:57.748Z,1041.04
2016-10-29T11:27:57.744Z,1041.02
2016-10-29T11:28:57.740Z,1040.66
2016-10-29T11:29:57.734Z,1041.04
2016-10-29T11:30:57.731Z,1041.16
2016-10-29T11:31:57.725Z,1041.24
2016-10-29T11:32:58.074Z,1041.28
2016-10-29T11:33:58.566Z,1041.28
2016-10-29T11:34:57.713Z,1041.39
2016-10-29T11:35:57.708Z,1041.29
2016-10-29T11:36:57.705Z,1041.38
2016-10-29T11:37:57.697Z,1041.29
2016-10-29T11:38:57.696Z,1041.26
2016-10-29T11:39:57.689Z,1041.27
2016-10-29T11:40:57.687Z,1041.32
2016-10-29T11:41:57.679Z,1041.2
2016-10-29T11:42:57.675Z,1041.21
2016-10-29T11:43:57.673Z,1041.12
2016-10-29T11:44:57.668Z,1041.16
2016-10-29T11:45:57.660Z,1041.13
2016-10-29T11:46:58.009Z,1041.12
2016-10-29T11:47:57.652Z,1041.04
2016-10-29T11:48:57.647Z,1041
2016-10-29T11:49:57.648Z,1040.97
2016-10-29T11:50:57.638Z,1040.93
2016-10-29T11:51:57.637Z,1040.83
2016-10-29T11:52:57.631Z,1040.7
2016-10-29T11:53:57.627Z,1040.69
2016-10-29T11:54:57.620Z,1040.73
2016-10-29T11:56:58.749Z,1040.94
2016-10-29T11:57:57.609Z,1041.06
2016-10-29T11:58:58.195Z,1041.05
2016-10-29T11:59:58.203Z,1041
2016-10-29T12:00:57.595Z,1040.89
2016-10-29T12:01:57.591Z,1040.79
2016-10-29T12:02:57.586Z,1040.78
2016-10-29T12:03:57.581Z,1040.83
2016-10-29T12:04:57.575Z,1040.91
2016-10-29T12:05:57.572Z,1040.97
2016-10-29T12:06:59.084Z,1040.9
2016-10-29T12:07:57.661Z,1040.9
2016-10-29T12:08:58.218Z,1040.84
2016-10-29T12:09:57.574Z,1040.86
2016-10-29T12:10:57.547Z,1040.98
2016-10-29T12:11:57.542Z,1041.06